Baton Rouge, LA (70837)

1:42 PM CST on February 06, 2016 (GMT -0600)
Baton Rouge Metro-Ryan | | Change Station
CLOSE
Current Station
Airport
Location: Baton Rouge,
Elevation: 69 ft
Nearby Weather Stations
Active Advisory: Flood Warning

Elev 69 ft 30.54 °N, 91.15 °W | Updated 49 minutes ago

Clear
Clear
56 °F
Feels Like 56 °F
N
0
Wind Variable Wind from North

Today
High -- | Low -- °F
--% Chance of Precip.
Yesterday
High -- | Low -- °F
Precip. -- in
Pressure 30.29 in
Visibility 10.0 miles
Clouds Scattered Clouds 11000 ft
Dew Point 19 °F
Humidity 24%
Rainfall 0.00 in
Snow Depth Not available.
6:52 AM 5:45 PM
Waning Crescent, 4% visible
METAR KBTR 061853Z 00000KT 10SM SCT110 13/M07 A3029 RMK AO2 SLP256 T01331072
Pressure 30.29 in
Visibility 10.0 miles
Clouds Scattered Clouds 11000 ft
Dew Point 19 °F
Humidity 24%
Rainfall 0.00 in
Snow Depth Not available.
6:52 AM 5:45 PM
Waning Crescent, 4% visible
METAR KBTR 061853Z 00000KT 10SM SCT110 13/M07 A3029 RMK AO2 SLP256 T01331072

10-Day Weather Forecast

Almanac

Astronomy

Feb. 06, 2016 Rise Set
Actual Time
Civil Twilight
Nautical Twilight
Astronomical Twilight
Moon
Length of Visible Light
Length of Day
Tomorrow will be .
, % of the Moon is Illuminated

Today's Extremes

State Highs State Lows

Community

WunderPhotos

Upload Photos

1,891,037 photos uploaded!

WunderBlog® & News

Nearby

Air Quality

  Air Quality AQ Index Pollutant
Not available.

Snow Depth

Station Depth Elevation

Earthquake Activity

City Distance Mag. Time & Date
Minimum magnitude displayed is 2.5.

Coastal Water Temperatures

Place Temperature

Stations

Nearby Weather Stations

Station Location Temp. Windchill Dew Point Humidity Wind Precip. Elev Updated Type
                   

Watches & Warnings

Flood Warning
Issued: 11:25 AM CST Feb. 6, 2016 – National Weather Service

The Flood Warning continues for
the Mississippi River at Red River Landing.
* Until further notice.
* At 10:00 am Saturday the stage was 49.2 feet.
* Minor flooding is occurring and minor flooding is forecast.
* Flood stage is 48.0 feet.
* Forecast... the river will continue falling to below flood stage by
Monday February 8 and continue falling to 47.4 feet by
Thursday.
* Impact... at 48.0 feet... access roads will be inundated and
evacuation of all river islands must be complete. Protection of
people and property in the river bottom land on the river side of
the levees must be complete.
* Impact... at 46.0 feet... river traffic will become dangerous. A levee
crevasse would flood adjacent farm land. Significant flooding of
Raccourci Island will continue and evacuation of the island is
recommended.
* Impact... at 45.0 feet... between the 40 and 45 foot stage flooding of
Raccourci Island becomes significant. At the 45 foot stage
evacuation of the island is recommended.



Lat... Lon 3103 9153 3102 9170 3071 9159 3074 9137